Terminal Aerodrome Forecast
Issued by NWS Grand Forks, ND

Home | Current Version | Previous Version | Graphics & Text | Print | Product List | Glossary On
Versions: 1 2 3 4 5 6 7 8 9 10 11 12 13 14 15 16 17
000
FTUS43 KFGF 212320
TAFFAR
TAF
KFAR 212320Z 2200/2224 32008KT P6SM VCSH OVC040
     FM220500 29005KT P6SM BKN070
     FM221600 33009KT P6SM BKN045=

USA.gov is the U.S. government's official web portal to all federal, state and local government web resources and services.